createdAt,value
2023-04-18T00:02:19.326Z,44.8
2023-04-18T00:07:22.568Z,44.9
2023-04-18T00:12:22.169Z,44.8
2023-04-18T00:17:22.721Z,45
2023-04-18T00:22:23.092Z,44.9
2023-04-18T00:27:23.694Z,45
2023-04-18T00:32:24.303Z,45
2023-04-18T00:37:24.706Z,44.9
2023-04-18T00:42:25.437Z,45
2023-04-18T00:47:25.943Z,45
2023-04-18T00:52:29.200Z,45
2023-04-18T00:57:30.380Z,45.1
2023-04-18T01:02:30.695Z,45
2023-04-18T01:07:31.048Z,45
2023-04-18T01:12:34.178Z,45
2023-04-18T01:17:34.397Z,45.1
2023-04-18T01:22:37.492Z,45
2023-04-18T01:27:37.648Z,45.1
2023-04-18T01:32:39.330Z,45.1
2023-04-18T01:37:39.421Z,45.1
2023-04-18T01:42:39.786Z,45.2
2023-04-18T01:47:40.135Z,45.1
2023-04-18T01:52:40.566Z,45.1
2023-04-18T01:57:43.677Z,45.2
2023-04-18T02:02:43.938Z,45.2
2023-04-18T02:07:44.227Z,45.2
2023-04-18T02:12:44.701Z,45.1
2023-04-18T02:17:45.196Z,45.2
2023-04-18T02:22:45.712Z,45.2
2023-04-18T02:27:48.726Z,45.2
2023-04-18T02:32:53.178Z,45.2
2023-04-18T02:37:52.856Z,45.2
2023-04-18T02:42:53.359Z,45.1
2023-04-18T02:47:56.890Z,45
2023-04-18T02:52:59.294Z,45.1
2023-04-18T02:57:59.295Z,45
2023-04-18T03:03:02.470Z,45.1
2023-04-18T03:08:02.481Z,45
2023-04-18T03:13:04.106Z,45.1
2023-04-18T03:18:04.608Z,45
2023-04-18T03:23:05.070Z,45
2023-04-18T03:28:08.363Z,45.2
2023-04-18T03:33:08.191Z,45.2
2023-04-18T03:38:11.259Z,45.2
2023-04-18T03:43:13.949Z,45.2
2023-04-18T03:48:16.767Z,45.1
2023-04-18T03:53:16.676Z,45.1
2023-04-18T03:58:17.247Z,45.1
2023-04-18T04:03:17.766Z,45.2
2023-04-18T04:08:17.066Z,45.1
2023-04-18T04:13:17.753Z,45.1
2023-04-18T04:18:18.328Z,45.2
2023-04-18T04:23:19.648Z,45.2
2023-04-18T04:28:22.842Z,45.2
2023-04-18T04:33:25.645Z,45.3
2023-04-18T04:38:25.744Z,45.2
2023-04-18T04:43:26.245Z,45.2
2023-04-18T04:48:26.635Z,45.3
2023-04-18T04:53:27.007Z,45.1
2023-04-18T04:58:30.376Z,45.1
2023-04-18T05:03:33.210Z,45.1
2023-04-18T05:08:33.172Z,45
2023-04-18T05:13:33.812Z,45.1
2023-04-18T05:18:36.809Z,45
2023-04-18T05:23:39.617Z,45
2023-04-18T05:28:39.565Z,45.1
2023-04-18T05:33:39.683Z,45.2
2023-04-18T05:38:42.911Z,45.3
2023-04-18T05:43:44.461Z,45.2
2023-04-18T05:48:43.309Z,45.3
2023-04-18T05:53:46.680Z,45.3
2023-04-18T05:58:46.561Z,45.4
2023-04-18T06:03:47.294Z,45.4
2023-04-18T06:08:47.572Z,45.3
2023-04-18T06:13:48.210Z,45.3
2023-04-18T06:18:48.740Z,45.4
2023-04-18T06:23:49.216Z,45.4
2023-04-18T06:28:49.691Z,45.3
2023-04-18T06:33:50.905Z,45.3
2023-04-18T06:38:51.302Z,45
2023-04-18T06:44:02.552Z,45
2023-04-18T06:48:52.439Z,44.9
2023-04-18T06:53:53.067Z,44.8
2023-04-18T06:58:57.316Z,44.9
2023-04-18T07:03:57.199Z,45.1
2023-04-18T07:09:01.146Z,45.2
2023-04-18T07:14:01.118Z,45.2
2023-04-18T07:19:01.681Z,45.1
2023-04-18T07:24:02.102Z,45.1
2023-04-18T07:29:05.212Z,45.2
2023-04-18T07:34:05.202Z,45.2
2023-04-18T07:39:05.750Z,45.2
2023-04-18T07:44:10.273Z,45.3
2023-04-18T07:49:13.079Z,45.2
2023-04-18T07:54:12.737Z,45.2
2023-04-18T07:59:13.388Z,45.3
2023-04-18T08:04:13.614Z,45.1
2023-04-18T08:09:18.644Z,45.1
2023-04-18T08:14:21.443Z,45
2023-04-18T08:19:24.880Z,45
2023-04-18T08:24:24.720Z,45
2023-04-18T08:29:27.951Z,44.9
2023-04-18T08:34:28.049Z,44.9
2023-04-18T08:39:28.457Z,44.7
2023-04-18T08:44:31.751Z,44.8
2023-04-18T08:49:30.614Z,44.8
2023-04-18T08:54:31.531Z,44.5
2023-04-18T08:59:34.867Z,44.7
2023-04-18T09:04:37.801Z,44.7
2023-04-18T09:09:37.965Z,44.6
2023-04-18T09:14:38.495Z,44.6
2023-04-18T09:19:38.039Z,44.7
2023-04-18T09:24:39.999Z,44.7
2023-04-18T09:29:40.670Z,44.5
2023-04-18T09:34:43.702Z,44.5
2023-04-18T09:39:43.996Z,44.6
2023-04-18T09:44:47.627Z,44.3
2023-04-18T09:49:47.677Z,44.4
2023-04-18T09:54:51.064Z,44.6
2023-04-18T09:59:51.608Z,44.6
2023-04-18T10:04:54.954Z,44.8
2023-04-18T10:09:57.822Z,44.7
2023-04-18T10:14:58.098Z,44.7
2023-04-18T10:20:01.653Z,44.7
2023-04-18T10:25:04.644Z,44.9
2023-04-18T10:30:05.419Z,44.9
2023-04-18T10:35:05.573Z,44.9
2023-04-18T10:40:06.177Z,44.8
2023-04-18T10:45:06.765Z,44.8
2023-04-18T10:50:07.562Z,44.9
2023-04-18T10:55:10.808Z,44.9
2023-04-18T11:00:11.038Z,44.9
2023-04-18T11:05:11.757Z,44.9
2023-04-18T11:10:12.307Z,44.9
2023-04-18T11:15:12.985Z,44.9
2023-04-18T11:20:14.362Z,45
2023-04-18T11:25:17.543Z,45.1
2023-04-18T11:30:17.801Z,45.1
2023-04-18T11:35:21.135Z,45.1
2023-04-18T11:40:21.388Z,45.1
2023-04-18T11:45:21.876Z,45.1
2023-04-18T11:50:22.392Z,45.2
2023-04-18T11:55:22.897Z,45.1
2023-04-18T12:00:23.539Z,45.2
2023-04-18T12:05:24.590Z,45.1
2023-04-18T12:10:25.176Z,45.1
2023-04-18T12:15:28.565Z,45.1
2023-04-18T12:20:27.564Z,44.5
2023-04-18T12:25:31.165Z,44.7
2023-04-18T12:30:31.486Z,44.1
2023-04-18T12:35:34.733Z,43.7
2023-04-18T12:40:37.505Z,43.6
2023-04-18T12:45:41.959Z,43.2
2023-04-18T12:50:43.406Z,43.1
2023-04-18T12:55:43.673Z,43
2023-04-18T13:00:44.379Z,42.9
2023-04-18T13:05:45.002Z,42.8
2023-04-18T13:10:45.489Z,42.4
2023-04-18T13:15:46.204Z,42.8
2023-04-18T13:20:49.607Z,42.8
2023-04-18T13:25:52.340Z,43.1
2023-04-18T13:30:52.463Z,43.2
2023-04-18T13:35:52.999Z,43.4
2023-04-18T13:41:01.198Z,43.6
2023-04-18T13:45:54.122Z,43.5
2023-04-18T13:50:54.704Z,43.6
2023-04-18T13:55:55.239Z,43.8
2023-04-18T14:00:58.519Z,43.8
2023-04-18T14:06:01.467Z,43.5
2023-04-18T14:11:01.425Z,43.7
2023-04-18T14:16:01.992Z,43.7
2023-04-18T14:21:02.739Z,43.5
2023-04-18T14:26:03.194Z,43.7
2023-04-18T14:31:03.941Z,43.7
2023-04-18T14:36:04.698Z,43.8
2023-04-18T14:41:05.421Z,43.8
2023-04-18T14:46:06.167Z,43.5
2023-04-18T14:51:06.963Z,43.6
2023-04-18T14:56:07.562Z,43.8
2023-04-18T15:01:07.995Z,43.8
2023-04-18T15:06:11.500Z,43.7
2023-04-18T15:11:11.672Z,43.8
2023-04-18T15:16:12.507Z,43.8
2023-04-18T15:21:13.151Z,43.7
2023-04-18T15:26:14.973Z,43.9
2023-04-18T15:31:15.153Z,43.9
2023-04-18T15:36:16.006Z,43.9
2023-04-18T15:41:16.468Z,43.8
2023-04-18T15:46:17.085Z,43.6
2023-04-18T15:51:20.244Z,43.9
2023-04-18T15:56:20.515Z,43.7
2023-04-18T16:01:21.215Z,43.8
2023-04-18T16:06:21.790Z,43.7
2023-04-18T16:11:22.607Z,43.8
2023-04-18T16:16:34.415Z,44
2023-04-18T16:21:33.574Z,44
2023-04-18T16:26:34.056Z,44
2023-04-18T16:31:34.668Z,44.1
2023-04-18T16:36:35.477Z,44.1
2023-04-18T16:41:36.440Z,44.1
2023-04-18T16:46:37.076Z,44.2
2023-04-18T16:51:40.671Z,44.1
2023-04-18T16:56:40.836Z,44.2
2023-04-18T17:01:42.506Z,44.1
2023-04-18T17:06:42.936Z,44.2
2023-04-18T17:11:43.413Z,44.1
2023-04-18T17:16:46.817Z,44.2
2023-04-18T17:21:50.537Z,44.2
2023-04-18T17:26:50.478Z,44.2
2023-04-18T17:31:53.796Z,44.2
2023-04-18T17:36:56.932Z,44.2
2023-04-18T17:41:57.022Z,44.3
2023-04-18T17:46:57.626Z,44.3
2023-04-18T17:51:58.213Z,44.3
2023-04-18T17:57:01.541Z,44.4
2023-04-18T18:02:01.553Z,44.3
2023-04-18T18:07:02.087Z,44.3
2023-04-18T18:12:02.690Z,44.2
2023-04-18T18:17:03.405Z,44.3
2023-04-18T18:22:04.001Z,44.2
2023-04-18T18:27:04.444Z,44.2
2023-04-18T18:32:05.171Z,44.4
2023-04-18T18:37:05.591Z,44.3
2023-04-18T18:42:06.081Z,44.4
2023-04-18T18:47:09.259Z,44.4
2023-04-18T18:52:09.448Z,44.4
2023-04-18T18:57:09.937Z,44.4
2023-04-18T19:02:13.050Z,44.5
2023-04-18T19:07:13.214Z,44.5
2023-04-18T19:12:12.598Z,44.5
2023-04-18T19:17:13.364Z,44.6
2023-04-18T19:22:14.072Z,44.6
2023-04-18T19:27:14.625Z,44.7
2023-04-18T19:32:17.910Z,44.7
2023-04-18T19:37:18.163Z,44.7
2023-04-18T19:42:18.697Z,44.7
2023-04-18T19:47:21.813Z,44.6
2023-04-18T19:52:24.806Z,44.6
2023-04-18T19:57:24.887Z,44.7
2023-04-18T20:02:25.105Z,44.6
2023-04-18T20:07:28.469Z,44.7
2023-04-18T20:12:28.715Z,44.7
2023-04-18T20:17:29.169Z,44.8
2023-04-18T20:22:31.565Z,44.7
2023-04-18T20:27:32.000Z,44.6
2023-04-18T20:32:32.754Z,44.8
2023-04-18T20:37:33.393Z,44.7
2023-04-18T20:42:33.764Z,44.7
2023-04-18T20:47:34.684Z,44.7
2023-04-18T20:52:35.057Z,44.7
2023-04-18T20:57:38.234Z,44.6
2023-04-18T21:02:38.595Z,44.7
2023-04-18T21:07:38.968Z,44.7
2023-04-18T21:12:42.224Z,44.7
2023-04-18T21:17:42.478Z,44.8
2023-04-18T21:22:42.954Z,44.8
2023-04-18T21:27:46.396Z,44.9
2023-04-18T21:32:49.532Z,44.9
2023-04-18T21:37:52.213Z,45
2023-04-18T21:42:52.258Z,44.9
2023-04-18T21:47:52.930Z,45
2023-04-18T21:52:56.110Z,45
2023-04-18T21:57:56.065Z,45
2023-04-18T22:08:05.755Z,45.1
2023-04-18T22:13:06.307Z,45.1
2023-04-18T22:18:09.662Z,45.1
2023-04-18T22:23:09.634Z,45.1
2023-04-18T22:28:10.110Z,45
2023-04-18T22:33:10.673Z,45
2023-04-18T22:38:11.216Z,45.1
2023-04-18T22:43:11.855Z,45.1
2023-04-18T22:48:12.453Z,45.1
2023-04-18T22:53:13.079Z,45.1
2023-04-18T22:58:13.679Z,45.2
2023-04-18T23:03:14.278Z,45.2
2023-04-18T23:08:14.898Z,45.2
2023-04-18T23:13:15.520Z,45.1
2023-04-18T23:18:18.774Z,45.2
2023-04-18T23:23:18.924Z,45.2
2023-04-18T23:28:19.673Z,45.1
2023-04-18T23:33:20.293Z,45.2
2023-04-18T23:38:20.683Z,45.2
2023-04-18T23:43:21.329Z,45.1
2023-04-18T23:48:22.192Z,45.2
2023-04-18T23:53:22.822Z,45.2
2023-04-18T23:58:26.191Z,45.2
